Port Royal, Virginia
Current Conditions -  °F | °C
As of 5:55 PM on Saturday 25 Oct 2014 (Local Time) from KEZF Reporting Station
Clear Clear  
Wind Chill: 69°   Ceiling: Unl
Heat Index: 69°   Visibility: 10mi
Dew Point: 43°   Wind: 7mph
Humidity: 39%   Direction: 190°S
Pressure: 29.78"   Gusts: NA
Location:  38.17°N, 77.19°W
Report Text: KEZF 252155Z AUTO 19006KT 10SM CLR 20/06 A2978 RMK AO2 T02030059
Loading
Personal Weather Stations






























Interactive Weather Map
Tropical Storm Tracking
New forecast layout! Learn more

10-Day Weather Forecast

Advertisements
Track Severe Weather on mobile